createdAt,value
2019-05-13T00:01:38.231Z,99.90
2019-05-13T00:07:40.467Z,99.90
2019-05-13T00:13:44.369Z,99.90
2019-05-13T00:19:46.608Z,99.90
2019-05-13T00:25:48.919Z,99.90
2019-05-13T00:31:54.003Z,99.90
2019-05-13T00:37:56.304Z,99.90
2019-05-13T00:43:58.467Z,99.90
2019-05-13T00:50:00.587Z,99.90
2019-05-13T00:56:04.023Z,99.90
2019-05-13T01:02:06.870Z,99.90
2019-05-13T01:08:09.097Z,99.90
2019-05-13T01:14:11.352Z,99.90
2019-05-13T01:20:14.587Z,99.90
2019-05-13T01:26:16.801Z,99.90
2019-05-13T01:32:23.682Z,99.90
2019-05-13T01:38:25.303Z,99.90
2019-05-13T01:44:27.591Z,99.90
2019-05-13T01:50:29.743Z,99.90
2019-05-13T01:56:33.805Z,99.90
2019-05-13T02:02:35.838Z,99.90
2019-05-13T02:08:38.048Z,99.90
2019-05-13T02:14:40.287Z,99.90
2019-05-13T02:20:44.313Z,99.90
2019-05-13T02:26:46.352Z,99.90
2019-05-13T02:32:53.105Z,99.90
2019-05-13T02:38:54.761Z,99.90
2019-05-13T02:44:57.017Z,99.90
2019-05-13T02:50:59.207Z,99.90
2019-05-13T02:57:03.746Z,99.90
2019-05-13T03:03:05.519Z,99.90
2019-05-13T03:09:07.732Z,99.90
2019-05-13T03:15:12.959Z,99.90
2019-05-13T03:21:14.766Z,99.90
2019-05-13T03:27:20.338Z,99.90
2019-05-13T03:33:27.857Z,99.90
2019-05-13T03:39:28.334Z,99.90
2019-05-13T03:45:34.017Z,99.90
2019-05-13T03:51:37.000Z,99.90
2019-05-13T03:57:42.348Z,99.90
2019-05-13T04:03:44.301Z,99.90
2019-05-13T04:09:46.629Z,99.90
2019-05-13T04:15:48.867Z,99.90
2019-05-13T04:21:52.831Z,99.90
2019-05-13T04:27:55.192Z,99.90
2019-05-13T04:34:02.181Z,99.90
2019-05-13T04:40:05.381Z,99.90
2019-05-13T04:46:07.885Z,99.90
2019-05-13T04:52:13.123Z,99.90
2019-05-13T04:58:14.404Z,99.90
2019-05-13T05:04:34.557Z,99.90
2019-05-13T05:10:58.416Z,99.90
2019-05-13T05:17:43.158Z,99.90
2019-05-13T05:24:14.388Z,99.90
2019-05-13T05:30:51.875Z,99.90
2019-05-13T05:37:22.364Z,99.90
2019-05-13T05:43:27.129Z,99.90
2019-05-13T05:49:31.799Z,99.90
2019-05-13T05:55:34.580Z,99.90
2019-05-13T06:01:41.565Z,99.90
2019-05-13T06:07:44.123Z,99.90
2019-05-13T06:13:46.639Z,99.90
2019-05-13T06:19:51.216Z,99.90
2019-05-13T06:25:53.828Z,99.90
2019-05-13T06:31:57.109Z,99.90
2019-05-13T06:38:01.475Z,99.90
2019-05-13T06:44:04.181Z,99.40
2019-05-13T06:50:11.649Z,99.10
2019-05-13T06:56:13.796Z,98.60
2019-05-13T07:02:15.995Z,98.20
2019-05-13T07:08:18.288Z,97.40
2019-05-13T07:14:21.790Z,95.10
2019-05-13T07:20:24.120Z,93.60
2019-05-13T07:26:26.312Z,93.70
2019-05-13T07:32:31.313Z,92.40
2019-05-13T07:38:33.733Z,90.80
2019-05-13T07:44:35.854Z,90.40
2019-05-13T07:50:51.470Z,89.40
2019-05-13T07:56:42.826Z,86.00
2019-05-13T08:02:45.110Z,82.80
2019-05-13T08:08:47.383Z,83.10
2019-05-13T08:14:52.171Z,79.10
2019-05-13T08:20:53.765Z,80.20
2019-05-13T08:26:56.022Z,76.90
2019-05-13T08:32:58.261Z,77.50
2019-05-13T08:39:02.603Z,76.00
2019-05-13T08:45:04.860Z,76.70
2019-05-13T08:51:07.091Z,70.70
2019-05-13T08:57:11.624Z,66.80
2019-05-13T09:03:13.354Z,64.00
2019-05-13T09:09:15.532Z,62.70
2019-05-13T09:15:17.667Z,61.50
2019-05-13T09:21:22.300Z,63.10
2019-05-13T09:27:23.955Z,63.60
2019-05-13T09:33:26.132Z,65.40
2019-05-13T09:39:28.521Z,63.40
2019-05-13T09:45:32.206Z,61.70
2019-05-13T09:51:34.548Z,65.20
2019-05-13T09:57:36.734Z,60.50
2019-05-13T10:03:53.186Z,56.00
2019-05-13T10:09:45.833Z,57.80
2019-05-13T10:15:48.813Z,55.00
2019-05-13T10:21:53.280Z,55.60
2019-05-13T10:27:55.452Z,53.20
2019-05-13T10:33:58.903Z,52.10
2019-05-13T10:40:02.301Z,52.60
2019-05-13T10:46:05.779Z,54.20
2019-05-13T10:52:08.324Z,51.60
2019-05-13T10:58:12.320Z,47.90
2019-05-13T11:04:14.563Z,48.10
2019-05-13T11:10:22.252Z,50.50
2019-05-13T11:16:24.914Z,52.50
2019-05-13T11:22:27.266Z,50.50
2019-05-13T11:28:29.634Z,53.30
2019-05-13T11:34:33.889Z,49.00
2019-05-13T11:40:38.262Z,49.20
2019-05-13T11:46:42.789Z,49.40
2019-05-13T11:52:45.236Z,50.00
2019-05-13T11:58:47.466Z,52.40
2019-05-13T12:04:52.545Z,51.30
2019-05-13T12:10:54.417Z,51.80
2019-05-13T12:16:56.644Z,49.60
2019-05-13T12:22:58.847Z,50.40
2019-05-13T12:29:02.849Z,51.40
2019-05-13T12:35:05.519Z,53.30
2019-05-13T12:41:07.880Z,52.30
2019-05-13T12:47:12.106Z,51.60
2019-05-13T12:53:14.495Z,48.70
2019-05-13T12:59:16.701Z,48.90
2019-05-13T13:05:21.316Z,51.10
2019-05-13T13:11:23.191Z,50.40
2019-05-13T13:17:25.546Z,53.50
2019-05-13T13:23:27.656Z,51.80
2019-05-13T13:29:34.022Z,51.00
2019-05-13T13:35:35.214Z,52.10
2019-05-13T13:41:37.409Z,51.30
2019-05-13T13:47:45.095Z,52.40
2019-05-13T13:53:44.762Z,54.00
2019-05-13T14:00:16.186Z,51.70
2019-05-13T14:05:53.585Z,53.20
2019-05-13T14:11:55.436Z,53.90
2019-05-13T14:17:58.261Z,52.20
2019-05-13T14:24:02.607Z,52.50
2019-05-13T14:30:06.388Z,53.40
2019-05-13T14:36:08.846Z,53.60
2019-05-13T14:42:11.828Z,51.40
2019-05-13T14:48:14.930Z,53.50
2019-05-13T14:54:17.329Z,52.40
2019-05-13T15:00:21.960Z,52.10
2019-05-13T15:06:25.186Z,51.20
2019-05-13T15:12:27.529Z,55.60
2019-05-13T15:18:32.244Z,53.40
2019-05-13T15:24:34.282Z,55.50
2019-05-13T15:30:36.588Z,52.30
2019-05-13T15:36:38.904Z,53.60
2019-05-13T15:42:41.280Z,52.80
2019-05-13T15:48:43.557Z,53.50
2019-05-13T15:54:46.303Z,53.40
2019-05-13T16:00:48.495Z,54.10
2019-05-13T16:06:52.104Z,55.30
2019-05-13T16:12:54.552Z,52.90
2019-05-13T16:18:56.737Z,52.60
2019-05-13T16:25:00.900Z,52.10
2019-05-13T16:31:03.224Z,51.20
2019-05-13T16:37:05.416Z,53.10
2019-05-13T16:43:12.809Z,53.50
2019-05-13T16:49:14.919Z,51.70
2019-05-13T16:55:17.274Z,52.80
2019-05-13T17:01:21.816Z,52.50
2019-05-13T17:07:23.736Z,52.60
2019-05-13T17:13:25.910Z,53.40
2019-05-13T17:19:28.218Z,53.10
2019-05-13T17:25:30.441Z,55.00
2019-05-13T17:31:32.715Z,53.60
2019-05-13T17:37:34.938Z,52.80
2019-05-13T17:43:37.491Z,51.00
2019-05-13T17:49:41.852Z,54.40
2019-05-13T17:55:44.139Z,52.70
2019-05-13T18:01:46.357Z,57.70
2019-05-13T18:07:48.638Z,63.60
2019-05-13T18:13:51.878Z,70.90
2019-05-13T18:19:54.548Z,75.40
2019-05-13T18:25:56.757Z,74.30
2019-05-13T18:32:01.673Z,74.00
2019-05-13T18:38:04.660Z,77.20
2019-05-13T18:44:08.774Z,78.80
2019-05-13T18:50:12.496Z,81.20
2019-05-13T18:56:14.743Z,85.80
2019-05-13T19:02:17.171Z,83.80
2019-05-13T19:08:21.579Z,84.30
2019-05-13T19:14:24.805Z,85.50
2019-05-13T19:20:27.205Z,85.30
2019-05-13T19:26:29.395Z,86.10
2019-05-13T19:32:32.342Z,86.30
2019-05-13T19:38:34.807Z,86.70
2019-05-13T19:44:37.178Z,88.50
2019-05-13T19:50:41.799Z,89.10
2019-05-13T19:56:44.681Z,90.30
2019-05-13T20:02:47.042Z,90.40
2019-05-13T20:08:51.674Z,90.70
2019-05-13T20:14:54.160Z,90.90
2019-05-13T20:21:01.057Z,91.30
2019-05-13T20:27:03.337Z,91.70
2019-05-13T20:33:05.670Z,92.30
2019-05-13T20:39:11.861Z,92.90
2019-05-13T20:45:14.422Z,93.10
2019-05-13T20:51:16.717Z,93.10
2019-05-13T20:57:18.958Z,93.60
2019-05-13T21:03:22.934Z,93.60
2019-05-13T21:09:25.261Z,93.50
2019-05-13T21:15:27.819Z,93.80
2019-05-13T21:21:31.151Z,94.20
2019-05-13T21:27:33.489Z,94.10
2019-05-13T21:33:35.746Z,94.00
2019-05-13T21:39:37.927Z,93.70
2019-05-13T21:45:41.554Z,93.10
2019-05-13T21:51:43.786Z,93.30
2019-05-13T21:57:46.063Z,92.10
2019-05-13T22:03:48.232Z,90.50
2019-05-13T22:09:51.319Z,89.30
2019-05-13T22:15:54.024Z,88.20
2019-05-13T22:21:56.253Z,88.50
2019-05-13T22:27:58.427Z,90.30
2019-05-13T22:34:01.470Z,90.40
2019-05-13T22:40:04.296Z,90.10
2019-05-13T22:46:06.759Z,89.30
2019-05-13T22:52:11.276Z,89.50
2019-05-13T22:58:14.251Z,88.70
2019-05-13T23:04:16.404Z,87.10
2019-05-13T23:10:18.656Z,86.80
2019-05-13T23:16:22.197Z,86.40
2019-05-13T23:22:25.552Z,86.70
2019-05-13T23:28:27.844Z,89.50
2019-05-13T23:34:31.875Z,90.00
2019-05-13T23:40:34.131Z,89.00
2019-05-13T23:46:36.388Z,88.70
2019-05-13T23:52:38.671Z,90.00
2019-05-13T23:58:41.401Z,90.90
